sensor_id;sensor_type;location;lat;lon;timestamp;temperature;humidity
17331;DHT22;8783;52.448;4.638;2024-03-17T00:02:22;8.80;99.90
17331;DHT22;8783;52.448;4.638;2024-03-17T00:04:48;8.80;99.90
17331;DHT22;8783;52.448;4.638;2024-03-17T00:07:13;8.80;99.90
17331;DHT22;8783;52.448;4.638;2024-03-17T00:09:40;8.80;99.90
17331;DHT22;8783;52.448;4.638;2024-03-17T00:12:06;8.80;99.90
17331;DHT22;8783;52.448;4.638;2024-03-17T00:14:33;8.80;99.90
17331;DHT22;8783;52.448;4.638;2024-03-17T00:17:00;8.80;99.90
17331;DHT22;8783;52.448;4.638;2024-03-17T00:19:26;8.80;99.90
17331;DHT22;8783;52.448;4.638;2024-03-17T00:21:51;8.80;99.90
17331;DHT22;8783;52.448;4.638;2024-03-17T00:24:18;8.70;99.90
17331;DHT22;8783;52.448;4.638;2024-03-17T00:26:43;8.80;99.90
17331;DHT22;8783;52.448;4.638;2024-03-17T00:29:10;8.70;99.90
17331;DHT22;8783;52.448;4.638;2024-03-17T00:31:36;8.70;99.90
17331;DHT22;8783;52.448;4.638;2024-03-17T00:34:02;8.70;99.90
17331;DHT22;8783;52.448;4.638;2024-03-17T00:36:28;8.70;99.90
17331;DHT22;8783;52.448;4.638;2024-03-17T00:38:54;8.70;99.90
17331;DHT22;8783;52.448;4.638;2024-03-17T00:41:20;8.70;99.90
17331;DHT22;8783;52.448;4.638;2024-03-17T00:43:47;8.70;99.90
17331;DHT22;8783;52.448;4.638;2024-03-17T00:46:12;8.60;99.90
17331;DHT22;8783;52.448;4.638;2024-03-17T00:48:38;8.60;99.90
17331;DHT22;8783;52.448;4.638;2024-03-17T00:51:04;8.60;99.90
17331;DHT22;8783;52.448;4.638;2024-03-17T00:53:30;8.70;99.90
17331;DHT22;8783;52.448;4.638;2024-03-17T00:55:56;8.60;99.90
17331;DHT22;8783;52.448;4.638;2024-03-17T00:58:26;8.60;99.90
17331;DHT22;8783;52.448;4.638;2024-03-17T01:00:52;8.70;99.90
17331;DHT22;8783;52.448;4.638;2024-03-17T01:03:17;8.60;99.90
17331;DHT22;8783;52.448;4.638;2024-03-17T01:05:44;8.60;99.90
17331;DHT22;8783;52.448;4.638;2024-03-17T01:08:13;8.60;99.90
17331;DHT22;8783;52.448;4.638;2024-03-17T01:10:40;8.60;99.90
17331;DHT22;8783;52.448;4.638;2024-03-17T01:13:09;8.60;99.90
17331;DHT22;8783;52.448;4.638;2024-03-17T01:15:39;8.60;99.90
17331;DHT22;8783;52.448;4.638;2024-03-17T01:18:05;8.60;99.90
17331;DHT22;8783;52.448;4.638;2024-03-17T01:20:35;8.60;99.90
17331;DHT22;8783;52.448;4.638;2024-03-17T01:23:01;8.60;99.90
17331;DHT22;8783;52.448;4.638;2024-03-17T01:25:27;8.60;99.90
17331;DHT22;8783;52.448;4.638;2024-03-17T01:27:55;8.60;99.90
17331;DHT22;8783;52.448;4.638;2024-03-17T01:30:21;8.60;99.90
17331;DHT22;8783;52.448;4.638;2024-03-17T01:32:47;8.60;99.90
17331;DHT22;8783;52.448;4.638;2024-03-17T01:35:14;8.60;99.90
17331;DHT22;8783;52.448;4.638;2024-03-17T01:37:40;8.60;99.90
17331;DHT22;8783;52.448;4.638;2024-03-17T01:40:07;8.60;99.90
17331;DHT22;8783;52.448;4.638;2024-03-17T01:42:39;8.50;99.90
17331;DHT22;8783;52.448;4.638;2024-03-17T01:47:43;8.60;99.90
17331;DHT22;8783;52.448;4.638;2024-03-17T01:50:09;8.60;99.90
17331;DHT22;8783;52.448;4.638;2024-03-17T01:52:36;8.50;99.90
17331;DHT22;8783;52.448;4.638;2024-03-17T01:55:03;8.60;99.90
17331;DHT22;8783;52.448;4.638;2024-03-17T01:57:29;8.50;99.90
17331;DHT22;8783;52.448;4.638;2024-03-17T01:59:56;8.50;99.90
17331;DHT22;8783;52.448;4.638;2024-03-17T02:02:22;8.50;99.90
17331;DHT22;8783;52.448;4.638;2024-03-17T02:04:48;8.60;99.90
17331;DHT22;8783;52.448;4.638;2024-03-17T02:07:14;8.50;99.90
17331;DHT22;8783;52.448;4.638;2024-03-17T02:09:41;8.50;99.90
17331;DHT22;8783;52.448;4.638;2024-03-17T02:12:08;8.50;99.90
17331;DHT22;8783;52.448;4.638;2024-03-17T02:14:35;8.50;99.90
17331;DHT22;8783;52.448;4.638;2024-03-17T02:17:01;8.40;99.90
17331;DHT22;8783;52.448;4.638;2024-03-17T02:19:26;8.50;99.90
17331;DHT22;8783;52.448;4.638;2024-03-17T02:21:52;8.50;99.90
17331;DHT22;8783;52.448;4.638;2024-03-17T02:24:17;8.50;99.90
17331;DHT22;8783;52.448;4.638;2024-03-17T02:26:43;8.50;99.90
17331;DHT22;8783;52.448;4.638;2024-03-17T02:29:09;8.50;99.90
17331;DHT22;8783;52.448;4.638;2024-03-17T02:31:35;8.50;99.90
17331;DHT22;8783;52.448;4.638;2024-03-17T02:34:00;8.50;99.90
17331;DHT22;8783;52.448;4.638;2024-03-17T02:36:26;8.50;99.90
17331;DHT22;8783;52.448;4.638;2024-03-17T02:38:51;8.50;99.90
17331;DHT22;8783;52.448;4.638;2024-03-17T02:41:36;8.50;99.90
17331;DHT22;8783;52.448;4.638;2024-03-17T02:44:01;8.50;99.90
17331;DHT22;8783;52.448;4.638;2024-03-17T02:46:27;8.50;99.90
17331;DHT22;8783;52.448;4.638;2024-03-17T02:48:53;8.50;99.90
17331;DHT22;8783;52.448;4.638;2024-03-17T02:51:20;8.50;99.90
17331;DHT22;8783;52.448;4.638;2024-03-17T02:53:47;8.50;99.90
17331;DHT22;8783;52.448;4.638;2024-03-17T02:56:14;8.50;99.90
17331;DHT22;8783;52.448;4.638;2024-03-17T02:58:44;8.50;99.90
17331;DHT22;8783;52.448;4.638;2024-03-17T03:01:11;8.50;99.90
17331;DHT22;8783;52.448;4.638;2024-03-17T03:03:37;8.50;99.90
17331;DHT22;8783;52.448;4.638;2024-03-17T03:06:03;8.50;99.90
17331;DHT22;8783;52.448;4.638;2024-03-17T03:08:41;8.40;99.90
17331;DHT22;8783;52.448;4.638;2024-03-17T03:11:09;8.50;99.90
17331;DHT22;8783;52.448;4.638;2024-03-17T03:13:43;8.50;99.90
17331;DHT22;8783;52.448;4.638;2024-03-17T03:16:11;8.50;99.90
17331;DHT22;8783;52.448;4.638;2024-03-17T03:18:38;8.50;99.90
17331;DHT22;8783;52.448;4.638;2024-03-17T03:21:06;8.50;99.90
17331;DHT22;8783;52.448;4.638;2024-03-17T03:23:32;8.40;99.90
17331;DHT22;8783;52.448;4.638;2024-03-17T03:25:59;8.50;99.90
17331;DHT22;8783;52.448;4.638;2024-03-17T03:28:26;8.50;99.90
17331;DHT22;8783;52.448;4.638;2024-03-17T03:30:52;8.40;99.90
17331;DHT22;8783;52.448;4.638;2024-03-17T03:33:19;8.50;99.90
17331;DHT22;8783;52.448;4.638;2024-03-17T03:35:45;8.40;99.90
17331;DHT22;8783;52.448;4.638;2024-03-17T03:38:14;8.40;99.90
17331;DHT22;8783;52.448;4.638;2024-03-17T03:40:41;8.50;99.90
17331;DHT22;8783;52.448;4.638;2024-03-17T03:43:10;8.40;99.90
17331;DHT22;8783;52.448;4.638;2024-03-17T03:45:36;8.50;99.90
17331;DHT22;8783;52.448;4.638;2024-03-17T03:48:03;8.40;99.90
17331;DHT22;8783;52.448;4.638;2024-03-17T03:50:29;8.40;99.90
17331;DHT22;8783;52.448;4.638;2024-03-17T03:52:55;8.50;99.90
17331;DHT22;8783;52.448;4.638;2024-03-17T03:55:20;8.40;99.90
17331;DHT22;8783;52.448;4.638;2024-03-17T03:57:46;8.40;99.90
17331;DHT22;8783;52.448;4.638;2024-03-17T04:00:14;8.40;99.90
17331;DHT22;8783;52.448;4.638;2024-03-17T04:02:43;8.50;99.90
17331;DHT22;8783;52.448;4.638;2024-03-17T04:05:09;8.50;99.90
17331;DHT22;8783;52.448;4.638;2024-03-17T04:07:36;8.50;99.90
17331;DHT22;8783;52.448;4.638;2024-03-17T04:10:05;8.40;99.90
17331;DHT22;8783;52.448;4.638;2024-03-17T04:12:30;8.40;99.90
17331;DHT22;8783;52.448;4.638;2024-03-17T04:14:59;8.40;99.90
17331;DHT22;8783;52.448;4.638;2024-03-17T04:17:25;8.40;99.90
17331;DHT22;8783;52.448;4.638;2024-03-17T04:19:53;8.40;99.90
17331;DHT22;8783;52.448;4.638;2024-03-17T04:22:20;8.40;99.90
17331;DHT22;8783;52.448;4.638;2024-03-17T04:24:46;8.40;99.90
17331;DHT22;8783;52.448;4.638;2024-03-17T04:27:13;8.40;99.90
17331;DHT22;8783;52.448;4.638;2024-03-17T04:29:39;8.40;99.90
17331;DHT22;8783;52.448;4.638;2024-03-17T04:32:06;8.40;99.90
17331;DHT22;8783;52.448;4.638;2024-03-17T04:34:32;8.30;99.90
17331;DHT22;8783;52.448;4.638;2024-03-17T04:36:58;8.40;99.90
17331;DHT22;8783;52.448;4.638;2024-03-17T04:39:24;8.40;99.90
17331;DHT22;8783;52.448;4.638;2024-03-17T04:41:50;8.40;99.90
17331;DHT22;8783;52.448;4.638;2024-03-17T04:44:16;8.40;99.90
17331;DHT22;8783;52.448;4.638;2024-03-17T04:46:42;8.40;99.90
17331;DHT22;8783;52.448;4.638;2024-03-17T04:49:08;8.40;99.90
17331;DHT22;8783;52.448;4.638;2024-03-17T04:51:34;8.40;99.90
17331;DHT22;8783;52.448;4.638;2024-03-17T04:54:00;8.40;99.90
17331;DHT22;8783;52.448;4.638;2024-03-17T04:56:28;8.30;99.90
17331;DHT22;8783;52.448;4.638;2024-03-17T04:58:54;8.40;99.90
17331;DHT22;8783;52.448;4.638;2024-03-17T05:01:19;8.40;99.90
17331;DHT22;8783;52.448;4.638;2024-03-17T05:03:45;8.30;99.90
17331;DHT22;8783;52.448;4.638;2024-03-17T05:06:11;8.30;99.90
17331;DHT22;8783;52.448;4.638;2024-03-17T05:08:37;8.30;99.90
17331;DHT22;8783;52.448;4.638;2024-03-17T05:11:04;8.30;99.90
17331;DHT22;8783;52.448;4.638;2024-03-17T05:13:35;8.30;99.90
17331;DHT22;8783;52.448;4.638;2024-03-17T05:16:01;8.30;99.90
17331;DHT22;8783;52.448;4.638;2024-03-17T05:18:29;8.30;99.90
17331;DHT22;8783;52.448;4.638;2024-03-17T05:21:03;8.30;99.90
17331;DHT22;8783;52.448;4.638;2024-03-17T05:23:30;8.30;99.90
17331;DHT22;8783;52.448;4.638;2024-03-17T05:25:56;8.30;99.90
17331;DHT22;8783;52.448;4.638;2024-03-17T05:28:27;8.30;99.90
17331;DHT22;8783;52.448;4.638;2024-03-17T05:30:53;8.30;99.90
17331;DHT22;8783;52.448;4.638;2024-03-17T05:33:21;8.30;99.90
17331;DHT22;8783;52.448;4.638;2024-03-17T05:35:54;8.30;99.90
17331;DHT22;8783;52.448;4.638;2024-03-17T05:38:20;8.30;99.90
17331;DHT22;8783;52.448;4.638;2024-03-17T05:41:13;8.30;99.90
17331;DHT22;8783;52.448;4.638;2024-03-17T05:43:39;8.30;99.90
17331;DHT22;8783;52.448;4.638;2024-03-17T05:46:06;8.30;99.90
17331;DHT22;8783;52.448;4.638;2024-03-17T05:48:39;8.30;99.90
17331;DHT22;8783;52.448;4.638;2024-03-17T05:51:09;8.30;99.90
17331;DHT22;8783;52.448;4.638;2024-03-17T05:53:35;8.30;99.90
17331;DHT22;8783;52.448;4.638;2024-03-17T05:56:02;8.30;99.90
17331;DHT22;8783;52.448;4.638;2024-03-17T05:58:28;8.30;99.90
17331;DHT22;8783;52.448;4.638;2024-03-17T06:00:53;8.30;99.90
17331;DHT22;8783;52.448;4.638;2024-03-17T06:03:19;8.30;99.90
17331;DHT22;8783;52.448;4.638;2024-03-17T06:05:45;8.30;99.90
17331;DHT22;8783;52.448;4.638;2024-03-17T06:08:12;8.30;99.90
17331;DHT22;8783;52.448;4.638;2024-03-17T06:10:42;8.30;99.90
17331;DHT22;8783;52.448;4.638;2024-03-17T06:13:08;8.30;99.90
17331;DHT22;8783;52.448;4.638;2024-03-17T06:15:37;8.30;99.90
17331;DHT22;8783;52.448;4.638;2024-03-17T06:18:03;8.30;99.90
17331;DHT22;8783;52.448;4.638;2024-03-17T06:20:29;8.30;99.90
17331;DHT22;8783;52.448;4.638;2024-03-17T06:22:55;8.30;99.90
17331;DHT22;8783;52.448;4.638;2024-03-17T06:25:21;8.30;99.90
17331;DHT22;8783;52.448;4.638;2024-03-17T06:27:52;8.30;99.90
17331;DHT22;8783;52.448;4.638;2024-03-17T06:30:18;8.30;99.90
17331;DHT22;8783;52.448;4.638;2024-03-17T06:32:45;8.30;99.90
17331;DHT22;8783;52.448;4.638;2024-03-17T06:35:12;8.30;99.90
17331;DHT22;8783;52.448;4.638;2024-03-17T06:37:41;8.30;99.90
17331;DHT22;8783;52.448;4.638;2024-03-17T06:40:09;8.40;99.90
17331;DHT22;8783;52.448;4.638;2024-03-17T06:42:38;8.30;99.90
17331;DHT22;8783;52.448;4.638;2024-03-17T06:45:04;8.30;99.90
17331;DHT22;8783;52.448;4.638;2024-03-17T06:47:30;8.40;99.90
17331;DHT22;8783;52.448;4.638;2024-03-17T06:49:55;8.40;99.90
17331;DHT22;8783;52.448;4.638;2024-03-17T06:52:21;8.40;99.90
17331;DHT22;8783;52.448;4.638;2024-03-17T06:54:47;8.50;99.90
17331;DHT22;8783;52.448;4.638;2024-03-17T06:57:15;8.50;99.90
17331;DHT22;8783;52.448;4.638;2024-03-17T06:59:41;8.50;99.90
17331;DHT22;8783;52.448;4.638;2024-03-17T07:02:07;8.50;99.90
17331;DHT22;8783;52.448;4.638;2024-03-17T07:04:35;8.50;99.90
17331;DHT22;8783;52.448;4.638;2024-03-17T07:07:00;8.50;99.90
17331;DHT22;8783;52.448;4.638;2024-03-17T07:09:26;8.50;99.90
17331;DHT22;8783;52.448;4.638;2024-03-17T07:11:52;8.50;99.90
17331;DHT22;8783;52.448;4.638;2024-03-17T07:14:18;8.60;99.90
17331;DHT22;8783;52.448;4.638;2024-03-17T07:16:44;8.60;99.90
17331;DHT22;8783;52.448;4.638;2024-03-17T07:19:10;8.60;99.90
17331;DHT22;8783;52.448;4.638;2024-03-17T07:21:36;8.60;99.90
17331;DHT22;8783;52.448;4.638;2024-03-17T07:24:01;8.60;99.90
17331;DHT22;8783;52.448;4.638;2024-03-17T07:26:30;8.60;99.90
17331;DHT22;8783;52.448;4.638;2024-03-17T07:28:56;8.60;99.90
17331;DHT22;8783;52.448;4.638;2024-03-17T07:31:21;8.60;99.90
17331;DHT22;8783;52.448;4.638;2024-03-17T07:33:47;8.60;99.90
17331;DHT22;8783;52.448;4.638;2024-03-17T07:36:13;8.70;99.90
17331;DHT22;8783;52.448;4.638;2024-03-17T07:38:39;8.70;99.90
17331;DHT22;8783;52.448;4.638;2024-03-17T07:41:06;8.70;99.90
17331;DHT22;8783;52.448;4.638;2024-03-17T07:43:34;8.70;99.90
17331;DHT22;8783;52.448;4.638;2024-03-17T07:46:08;8.70;99.90
17331;DHT22;8783;52.448;4.638;2024-03-17T07:48:36;8.70;99.90
17331;DHT22;8783;52.448;4.638;2024-03-17T07:51:04;8.70;99.90
17331;DHT22;8783;52.448;4.638;2024-03-17T07:53:31;8.70;99.90
17331;DHT22;8783;52.448;4.638;2024-03-17T07:55:58;8.80;99.90
17331;DHT22;8783;52.448;4.638;2024-03-17T07:58:24;8.80;99.90
17331;DHT22;8783;52.448;4.638;2024-03-17T08:00:51;8.80;99.90
17331;DHT22;8783;52.448;4.638;2024-03-17T08:03:18;8.80;99.90
17331;DHT22;8783;52.448;4.638;2024-03-17T08:05:48;8.80;99.90
17331;DHT22;8783;52.448;4.638;2024-03-17T08:08:15;8.90;99.90
17331;DHT22;8783;52.448;4.638;2024-03-17T08:10:41;8.90;99.90
17331;DHT22;8783;52.448;4.638;2024-03-17T08:13:06;8.90;99.90
17331;DHT22;8783;52.448;4.638;2024-03-17T08:15:34;8.90;99.90
17331;DHT22;8783;52.448;4.638;2024-03-17T08:18:00;8.90;99.90
17331;DHT22;8783;52.448;4.638;2024-03-17T08:20:25;8.90;99.90
17331;DHT22;8783;52.448;4.638;2024-03-17T08:22:51;9.00;99.90
17331;DHT22;8783;52.448;4.638;2024-03-17T08:25:17;9.00;99.90
17331;DHT22;8783;52.448;4.638;2024-03-17T08:27:43;9.00;99.90
17331;DHT22;8783;52.448;4.638;2024-03-17T08:30:09;9.00;99.90
17331;DHT22;8783;52.448;4.638;2024-03-17T08:32:38;9.10;99.90
17331;DHT22;8783;52.448;4.638;2024-03-17T08:35:05;9.10;99.90
17331;DHT22;8783;52.448;4.638;2024-03-17T08:37:31;9.10;99.90
17331;DHT22;8783;52.448;4.638;2024-03-17T08:39:57;9.10;99.90
17331;DHT22;8783;52.448;4.638;2024-03-17T08:42:22;9.10;99.90
17331;DHT22;8783;52.448;4.638;2024-03-17T08:44:48;9.10;99.90
17331;DHT22;8783;52.448;4.638;2024-03-17T08:47:14;9.20;99.90
17331;DHT22;8783;52.448;4.638;2024-03-17T08:49:39;9.20;99.90
17331;DHT22;8783;52.448;4.638;2024-03-17T08:52:05;9.20;99.90
17331;DHT22;8783;52.448;4.638;2024-03-17T08:54:30;9.20;99.90
17331;DHT22;8783;52.448;4.638;2024-03-17T08:56:56;9.30;99.90
17331;DHT22;8783;52.448;4.638;2024-03-17T08:59:22;9.30;99.90
17331;DHT22;8783;52.448;4.638;2024-03-17T09:01:47;9.30;99.90
17331;DHT22;8783;52.448;4.638;2024-03-17T09:04:13;9.30;99.90
17331;DHT22;8783;52.448;4.638;2024-03-17T09:06:38;9.30;99.90
17331;DHT22;8783;52.448;4.638;2024-03-17T09:09:04;9.40;99.90
17331;DHT22;8783;52.448;4.638;2024-03-17T09:11:31;9.40;99.90
17331;DHT22;8783;52.448;4.638;2024-03-17T09:13:57;9.40;99.90
17331;DHT22;8783;52.448;4.638;2024-03-17T09:16:24;9.40;99.90
17331;DHT22;8783;52.448;4.638;2024-03-17T09:18:51;9.40;99.90
17331;DHT22;8783;52.448;4.638;2024-03-17T09:21:17;9.50;99.90
17331;DHT22;8783;52.448;4.638;2024-03-17T09:23:43;9.50;99.90
17331;DHT22;8783;52.448;4.638;2024-03-17T09:26:10;9.50;99.90
17331;DHT22;8783;52.448;4.638;2024-03-17T09:28:39;9.50;99.90
17331;DHT22;8783;52.448;4.638;2024-03-17T09:31:05;9.60;99.90
17331;DHT22;8783;52.448;4.638;2024-03-17T09:33:33;9.60;99.90
17331;DHT22;8783;52.448;4.638;2024-03-17T09:36:00;9.60;99.90
17331;DHT22;8783;52.448;4.638;2024-03-17T09:38:27;9.60;99.90
17331;DHT22;8783;52.448;4.638;2024-03-17T09:40:53;9.70;99.90
17331;DHT22;8783;52.448;4.638;2024-03-17T09:43:23;9.70;99.90
17331;DHT22;8783;52.448;4.638;2024-03-17T09:45:51;9.80;99.90
17331;DHT22;8783;52.448;4.638;2024-03-17T09:48:22;9.80;99.90
17331;DHT22;8783;52.448;4.638;2024-03-17T09:50:53;9.80;99.90
17331;DHT22;8783;52.448;4.638;2024-03-17T09:53:30;9.90;99.90
17331;DHT22;8783;52.448;4.638;2024-03-17T09:56:01;9.90;99.90
17331;DHT22;8783;52.448;4.638;2024-03-17T09:58:28;9.90;99.90
17331;DHT22;8783;52.448;4.638;2024-03-17T10:00:54;10.00;99.90
17331;DHT22;8783;52.448;4.638;2024-03-17T10:03:39;10.00;99.90
17331;DHT22;8783;52.448;4.638;2024-03-17T10:06:06;10.00;99.90
17331;DHT22;8783;52.448;4.638;2024-03-17T10:08:31;10.10;99.90
17331;DHT22;8783;52.448;4.638;2024-03-17T10:10:59;10.10;99.90
17331;DHT22;8783;52.448;4.638;2024-03-17T10:13:25;10.10;99.90
17331;DHT22;8783;52.448;4.638;2024-03-17T10:15:51;10.20;99.90
17331;DHT22;8783;52.448;4.638;2024-03-17T10:18:23;10.30;99.90
17331;DHT22;8783;52.448;4.638;2024-03-17T10:20:49;10.30;99.90
17331;DHT22;8783;52.448;4.638;2024-03-17T10:23:22;10.30;99.90
17331;DHT22;8783;52.448;4.638;2024-03-17T10:25:47;10.40;99.90
17331;DHT22;8783;52.448;4.638;2024-03-17T10:28:18;10.40;99.90
17331;DHT22;8783;52.448;4.638;2024-03-17T10:30:59;10.40;99.90
17331;DHT22;8783;52.448;4.638;2024-03-17T10:33:26;10.50;99.90
17331;DHT22;8783;52.448;4.638;2024-03-17T10:35:59;10.50;99.90
17331;DHT22;8783;52.448;4.638;2024-03-17T10:38:30;10.50;99.90
17331;DHT22;8783;52.448;4.638;2024-03-17T10:40:57;10.50;99.90
17331;DHT22;8783;52.448;4.638;2024-03-17T10:43:22;10.60;99.90
17331;DHT22;8783;52.448;4.638;2024-03-17T10:45:54;10.60;99.90
17331;DHT22;8783;52.448;4.638;2024-03-17T10:48:21;10.60;99.90
17331;DHT22;8783;52.448;4.638;2024-03-17T10:50:50;10.70;99.90
17331;DHT22;8783;52.448;4.638;2024-03-17T10:53:20;10.70;99.90
17331;DHT22;8783;52.448;4.638;2024-03-17T10:56:05;10.70;99.90
17331;DHT22;8783;52.448;4.638;2024-03-17T10:58:38;10.80;99.90
17331;DHT22;8783;52.448;4.638;2024-03-17T11:01:06;10.80;99.90
17331;DHT22;8783;52.448;4.638;2024-03-17T11:03:33;10.80;99.90
17331;DHT22;8783;52.448;4.638;2024-03-17T11:06:03;10.90;99.90
17331;DHT22;8783;52.448;4.638;2024-03-17T11:08:31;10.90;99.90
17331;DHT22;8783;52.448;4.638;2024-03-17T11:11:01;10.90;99.90
17331;DHT22;8783;52.448;4.638;2024-03-17T11:13:29;11.00;99.90
17331;DHT22;8783;52.448;4.638;2024-03-17T11:15:55;11.00;99.90
17331;DHT22;8783;52.448;4.638;2024-03-17T11:20:59;11.00;99.90
17331;DHT22;8783;52.448;4.638;2024-03-17T11:23:30;11.10;99.90
17331;DHT22;8783;52.448;4.638;2024-03-17T11:25:57;11.10;99.90
17331;DHT22;8783;52.448;4.638;2024-03-17T11:34:29;11.20;99.90
17331;DHT22;8783;52.448;4.638;2024-03-17T11:36:57;11.20;99.90
17331;DHT22;8783;52.448;4.638;2024-03-17T11:39:48;11.30;99.90
17331;DHT22;8783;52.448;4.638;2024-03-17T11:42:24;11.30;99.90
17331;DHT22;8783;52.448;4.638;2024-03-17T11:45:04;11.30;99.90
17331;DHT22;8783;52.448;4.638;2024-03-17T11:47:44;11.40;99.90
17331;DHT22;8783;52.448;4.638;2024-03-17T11:50:10;11.30;99.90
17331;DHT22;8783;52.448;4.638;2024-03-17T11:52:38;11.40;99.90
17331;DHT22;8783;52.448;4.638;2024-03-17T11:55:15;11.40;99.90
17331;DHT22;8783;52.448;4.638;2024-03-17T11:57:41;11.40;99.90
17331;DHT22;8783;52.448;4.638;2024-03-17T12:00:19;11.50;99.90
17331;DHT22;8783;52.448;4.638;2024-03-17T12:02:48;11.50;99.90
17331;DHT22;8783;52.448;4.638;2024-03-17T12:05:14;11.60;99.90
17331;DHT22;8783;52.448;4.638;2024-03-17T12:07:43;11.60;99.90
17331;DHT22;8783;52.448;4.638;2024-03-17T12:10:11;11.60;99.90
17331;DHT22;8783;52.448;4.638;2024-03-17T12:12:39;11.60;99.90
17331;DHT22;8783;52.448;4.638;2024-03-17T12:15:16;11.60;99.90
17331;DHT22;8783;52.448;4.638;2024-03-17T12:17:42;11.70;99.90
17331;DHT22;8783;52.448;4.638;2024-03-17T12:20:21;11.70;99.90
17331;DHT22;8783;52.448;4.638;2024-03-17T12:22:47;11.70;99.90
17331;DHT22;8783;52.448;4.638;2024-03-17T12:25:20;11.70;99.90
17331;DHT22;8783;52.448;4.638;2024-03-17T12:27:46;11.80;99.90
17331;DHT22;8783;52.448;4.638;2024-03-17T12:30:14;11.80;99.90
17331;DHT22;8783;52.448;4.638;2024-03-17T12:32:40;11.90;99.90
17331;DHT22;8783;52.448;4.638;2024-03-17T12:35:14;11.90;99.90
17331;DHT22;8783;52.448;4.638;2024-03-17T12:37:42;11.90;99.90
17331;DHT22;8783;52.448;4.638;2024-03-17T12:40:18;11.90;99.90
17331;DHT22;8783;52.448;4.638;2024-03-17T12:42:48;12.00;99.90
17331;DHT22;8783;52.448;4.638;2024-03-17T12:45:19;12.00;99.90
17331;DHT22;8783;52.448;4.638;2024-03-17T12:47:47;12.00;99.90
17331;DHT22;8783;52.448;4.638;2024-03-17T12:50:13;12.00;99.90
17331;DHT22;8783;52.448;4.638;2024-03-17T12:52:51;12.00;99.90
17331;DHT22;8783;52.448;4.638;2024-03-17T12:55:21;12.10;99.90
17331;DHT22;8783;52.448;4.638;2024-03-17T12:58:07;12.10;99.90
17331;DHT22;8783;52.448;4.638;2024-03-17T13:03:32;12.30;99.90
17331;DHT22;8783;52.448;4.638;2024-03-17T13:06:00;12.20;99.90
17331;DHT22;8783;52.448;4.638;2024-03-17T13:08:26;12.30;99.90
17331;DHT22;8783;52.448;4.638;2024-03-17T13:10:51;12.30;99.90
17331;DHT22;8783;52.448;4.638;2024-03-17T13:13:17;12.30;99.90
17331;DHT22;8783;52.448;4.638;2024-03-17T13:15:43;12.30;99.90
17331;DHT22;8783;52.448;4.638;2024-03-17T13:18:11;12.40;99.90
17331;DHT22;8783;52.448;4.638;2024-03-17T13:20:40;12.40;99.90
17331;DHT22;8783;52.448;4.638;2024-03-17T13:23:07;12.40;99.90
17331;DHT22;8783;52.448;4.638;2024-03-17T13:25:33;12.40;99.90
17331;DHT22;8783;52.448;4.638;2024-03-17T13:28:02;12.40;99.90
17331;DHT22;8783;52.448;4.638;2024-03-17T13:30:29;12.40;99.90
17331;DHT22;8783;52.448;4.638;2024-03-17T13:32:56;12.40;99.90
17331;DHT22;8783;52.448;4.638;2024-03-17T13:35:29;12.40;99.90
17331;DHT22;8783;52.448;4.638;2024-03-17T13:37:56;12.50;99.90
17331;DHT22;8783;52.448;4.638;2024-03-17T13:40:26;12.50;99.90
17331;DHT22;8783;52.448;4.638;2024-03-17T13:42:53;12.50;99.90
17331;DHT22;8783;52.448;4.638;2024-03-17T13:45:21;12.60;99.90
17331;DHT22;8783;52.448;4.638;2024-03-17T13:47:51;12.60;99.90
17331;DHT22;8783;52.448;4.638;2024-03-17T13:50:17;12.70;99.90
17331;DHT22;8783;52.448;4.638;2024-03-17T13:52:43;12.80;99.90
17331;DHT22;8783;52.448;4.638;2024-03-17T13:55:20;12.80;99.90
17331;DHT22;8783;52.448;4.638;2024-03-17T13:57:54;12.90;99.90
17331;DHT22;8783;52.448;4.638;2024-03-17T14:00:20;12.90;99.90
17331;DHT22;8783;52.448;4.638;2024-03-17T14:02:48;13.00;99.90
17331;DHT22;8783;52.448;4.638;2024-03-17T14:05:16;13.10;99.90
17331;DHT22;8783;52.448;4.638;2024-03-17T14:07:42;13.10;99.90
17331;DHT22;8783;52.448;4.638;2024-03-17T14:10:09;13.20;99.90
17331;DHT22;8783;52.448;4.638;2024-03-17T14:12:35;13.20;99.90
17331;DHT22;8783;52.448;4.638;2024-03-17T14:15:03;13.30;99.90
17331;DHT22;8783;52.448;4.638;2024-03-17T14:17:30;13.20;99.90
17331;DHT22;8783;52.448;4.638;2024-03-17T14:19:56;13.30;99.90
17331;DHT22;8783;52.448;4.638;2024-03-17T14:22:22;13.30;99.90
17331;DHT22;8783;52.448;4.638;2024-03-17T14:24:47;13.40;99.90
17331;DHT22;8783;52.448;4.638;2024-03-17T14:27:15;13.40;99.90
17331;DHT22;8783;52.448;4.638;2024-03-17T14:29:44;13.40;99.90
17331;DHT22;8783;52.448;4.638;2024-03-17T14:32:10;13.50;99.90
17331;DHT22;8783;52.448;4.638;2024-03-17T14:34:37;13.50;99.90
17331;DHT22;8783;52.448;4.638;2024-03-17T14:37:03;13.60;99.90
17331;DHT22;8783;52.448;4.638;2024-03-17T14:39:32;13.60;99.90
17331;DHT22;8783;52.448;4.638;2024-03-17T14:41:59;13.60;99.90
17331;DHT22;8783;52.448;4.638;2024-03-17T14:44:25;13.60;99.90
17331;DHT22;8783;52.448;4.638;2024-03-17T14:46:51;13.50;99.90
17331;DHT22;8783;52.448;4.638;2024-03-17T14:49:17;13.60;99.90
17331;DHT22;8783;52.448;4.638;2024-03-17T14:51:43;13.60;99.90
17331;DHT22;8783;52.448;4.638;2024-03-17T14:54:09;13.60;99.90
17331;DHT22;8783;52.448;4.638;2024-03-17T14:56:36;13.50;99.90
17331;DHT22;8783;52.448;4.638;2024-03-17T14:59:01;13.50;99.90
17331;DHT22;8783;52.448;4.638;2024-03-17T15:01:27;13.60;99.90
17331;DHT22;8783;52.448;4.638;2024-03-17T15:03:55;13.60;99.90
17331;DHT22;8783;52.448;4.638;2024-03-17T15:06:21;13.60;99.90
17331;DHT22;8783;52.448;4.638;2024-03-17T15:08:46;13.60;99.90
17331;DHT22;8783;52.448;4.638;2024-03-17T15:11:12;13.60;99.90
17331;DHT22;8783;52.448;4.638;2024-03-17T15:13:38;13.60;99.90
17331;DHT22;8783;52.448;4.638;2024-03-17T15:16:04;13.60;99.90
17331;DHT22;8783;52.448;4.638;2024-03-17T15:18:31;13.60;99.90
17331;DHT22;8783;52.448;4.638;2024-03-17T15:20:56;13.70;99.90
17331;DHT22;8783;52.448;4.638;2024-03-17T15:23:22;13.70;99.90
17331;DHT22;8783;52.448;4.638;2024-03-17T15:25:47;13.60;99.90
17331;DHT22;8783;52.448;4.638;2024-03-17T15:28:13;13.70;99.90
17331;DHT22;8783;52.448;4.638;2024-03-17T15:30:39;13.70;99.90
17331;DHT22;8783;52.448;4.638;2024-03-17T15:33:05;13.70;99.90
17331;DHT22;8783;52.448;4.638;2024-03-17T15:35:30;13.70;99.90
17331;DHT22;8783;52.448;4.638;2024-03-17T15:37:57;13.70;99.90
17331;DHT22;8783;52.448;4.638;2024-03-17T15:40:23;13.60;99.90
17331;DHT22;8783;52.448;4.638;2024-03-17T15:42:50;13.70;99.90
17331;DHT22;8783;52.448;4.638;2024-03-17T15:45:17;13.70;99.90
17331;DHT22;8783;52.448;4.638;2024-03-17T15:47:46;13.70;99.90
17331;DHT22;8783;52.448;4.638;2024-03-17T15:50:12;13.70;99.90
17331;DHT22;8783;52.448;4.638;2024-03-17T15:52:40;13.70;99.90
17331;DHT22;8783;52.448;4.638;2024-03-17T15:55:08;13.70;99.90
17331;DHT22;8783;52.448;4.638;2024-03-17T15:57:34;13.60;99.90
17331;DHT22;8783;52.448;4.638;2024-03-17T16:00:00;13.70;99.90
17331;DHT22;8783;52.448;4.638;2024-03-17T16:02:26;13.70;99.90
17331;DHT22;8783;52.448;4.638;2024-03-17T16:04:52;13.70;99.90
17331;DHT22;8783;52.448;4.638;2024-03-17T16:07:22;13.60;99.90
17331;DHT22;8783;52.448;4.638;2024-03-17T16:09:49;13.60;99.90
17331;DHT22;8783;52.448;4.638;2024-03-17T16:12:17;13.60;99.90